Antwerp

Airport
ICAO code: 
EBAW
IATA Code: 
ANR
Summary
ICAO Region: 
EUR
Territory: 
Location: 
Deurne, Antwerpen,
Serving: 
Antwerpen
Elevation: 
39 ft
Coordinates: 
Aerial View: 
51° 11' 22.56" N, 4° 27' 44.003" E
Metar
Observation
EBAW 261120Z 23007KT 6000 FEW012 OVC017 03/01 Q1033 NOSIG
Station
Antwerpen / Deurne
Date/Time
2022-01-26 11:20:00
Wind direction
230°
Wind speed
07 kts
Lowest cloud amount
few clouds
Temperature
3°C
Dew point
1°C
Humidity
86%
QNH
1033 hPa
Weather condition
n/a

Description

Antwerpen International Airport is located 2 km from the city of Antwerp, Belgium.

Climatology

Temperate Marine climate/Oceanic climate (Köppen climate classification Cfb) - Moderately cool summer and comparatively warm winter.

Runways

Designator Length Width Surface Rops
11/29 1510 45 ASP Yes/Yes
Airport map: 
Aerial View: 

SKYbrary Partners:

Safety knowledge contributed by: